Promitheas — SYIJ — position and weather

sailwx.info

Track history (hours):
 
Tides and Currents Weather Stations Pressure Air Temp Water Temp Dewpoint Dewpoint Depression Visibility Wind Speed Wind Dir Waves Ship Positions

Promitheas

Last reported at 2018-Apr-26 17:54 UTC. Time now 2018-Apr-26 22:36 UTC.
Position N 55°51' E 017°05'.

Length 249 m; draft 8.2 m.

Type: Ship (hazmat cat A). MMSI: 240547000.

Date/timePositionNaut miles runAvg speedWind from/ knotsBaromVisibWave heightAir tempDewpointWater temp
2018-Apr-26 17:54N 55°51' E 017°05'513.7
2018-Apr-26 17:31N 55°50' E 016°56'713.8
2018-Apr-26 17:00N 55°48' E 016°44'713.8
2018-Apr-26 16:31N 55°46' E 016°32'713.7
2018-Apr-26 16:01N 55°45' E 016°21'713.7
2018-Apr-26 15:31N 55°43' E 016°09'713.8
2018-Apr-26 15:00N 55°42' E 015°57'714.0
2018-Apr-26 14:30N 55°40' E 015°45'713.9
2018-Apr-26 14:00N 55°38' E 015°33'713.8
2018-Apr-26 13:30N 55°36' E 015°21'713.9
2018-Apr-26 13:00N 55°33' E 015°10'713.9
2018-Apr-26 12:30N 55°30' E 014°59'713.5
2018-Apr-26 12:00N 55°27' E 014°49'713.8
2018-Apr-26 11:30N 55°23' E 014°38'713.8
2018-Apr-26 11:00N 55°18' E 014°31'713.7
2018-Apr-26 10:30N 55°12' E 014°24'713.8
2018-Apr-26 10:00N 55°07' E 014°16'713.8
2018-Apr-26 09:30N 55°02' E 014°08'1413.7
2018-Apr-26 08:30N 54°57' E 013°46'5614.0
2018-Apr-26 04:30N 54°35' E 012°17'612.4
2018-Apr-26 04:01N 54°29' E 012°14'612.6
2018-Apr-26 03:30N 54°25' E 012°06'1114.6
2018-Apr-26 02:47N 54°25' E 011°48'414.3
2018-Apr-26 02:30N 54°26' E 011°41'714.5
2018-Apr-26 02:00N 54°30' E 011°30'714.8
2018-Apr-26 01:30N 54°33' E 011°19'714.7
2018-Apr-26 01:00N 54°36' E 011°08'714.5
2018-Apr-26 00:30N 54°40' E 010°57'612.9
2018-Apr-26 00:00N 54°46' E 010°51'815.9
2018-Apr-25 23:30N 54°54' E 010°53'714.8
2018-Apr-25 23:00N 54°60' E 011°00'815.2
2018-Apr-25 22:30N 55°07' E 011°02'713.7
2018-Apr-25 22:00N 55°14' E 011°06'12012.7
2018-Apr-25 12:31N 57°13' E 011°34'013.7
2018-Apr-25 12:30N 57°13' E 011°34'713.8
2018-Apr-25 12:00N 57°20' E 011°30'713.4
2018-Apr-25 11:31N 57°26' E 011°26'713.8
2018-Apr-25 11:00N 57°31' E 011°18'713.9
2018-Apr-25 10:30N 57°36' E 011°08'714.1
2018-Apr-25 10:00N 57°41' E 010°58'714.6
2018-Apr-25 09:30N 57°46' E 010°48'612.7
2018-Apr-25 09:00N 57°47' E 010°37'611.7
2018-Apr-25 08:30N 57°47' E 010°26'19912.1
2018-Apr-24 16:07N 55°35' E 005°55'213.5
2018-Apr-24 16:00N 55°34' E 005°54'713.4
2018-Apr-24 15:27N 55°27' E 005°49'21112.5
2018-Apr-23 22:36N 52°16' E 003°19'213.5
2018-Apr-23 22:26N 52°15' E 003°21'613.5
2018-Apr-23 22:00N 52°11' E 003°28'712.4
2018-Apr-23 21:28N 52°07' E 003°37'612.1
2018-Apr-23 20:59N 52°04' E 003°46'510.7
2018-Apr-23 20:30N 52°03' E 003°54'5 9.4
2018-Apr-23 20:00N 52°00' E 003°60'612.3
2018-Apr-23 19:30N 51°57' E 004°09'4 7.0
2018-Apr-23 19:00N 51°55' E 004°13'0 0.2
2018-Apr-23 18:29N 51°55' E 004°13'0 0.0
2018-Apr-23 17:59N 51°55' E 004°13'0 0.0
2018-Apr-23 17:29N 51°55' E 004°13'0 0.0
2018-Apr-23 16:59N 51°55' E 004°13'0 0.0
2018-Apr-23 16:29N 51°55' E 004°13'0 0.0
2018-Apr-23 15:59N 51°55' E 004°13'0 0.0
2018-Apr-23 15:29N 51°55' E 004°13'0 0.0
2018-Apr-23 14:59N 51°55' E 004°13'0 0.0
2018-Apr-23 14:29N 51°55' E 004°13'0 0.0
2018-Apr-23 13:56N 51°55' E 004°13'0 0.0
2018-Apr-23 13:29N 51°55' E 004°13'0 0.0
2018-Apr-23 12:53N 51°55' E 004°13'0 0.0
2018-Apr-23 12:29N 51°55' E 004°13'0 0.0
2018-Apr-23 11:59N 51°55' E 004°13'0 0.0
2018-Apr-23 11:23N 51°55' E 004°13'0 0.0
2018-Apr-23 10:56N 51°55' E 004°13'0 0.0
2018-Apr-23 10:26N 51°55' E 004°13'0 0.0
2018-Apr-23 09:59N 51°55' E 004°13'0 0.0
2018-Apr-23 09:29N 51°55' E 004°13'0 0.0
2018-Apr-23 08:59N 51°55' E 004°13'0 0.0
2018-Apr-23 08:29N 51°55' E 004°13'0 0.0
2018-Apr-23 07:56N 51°55' E 004°13'0 0.0
2018-Apr-23 07:26N 51°55' E 004°13'0 0.0
2018-Apr-23 06:59N 51°55' E 004°13'0 0.0
2018-Apr-23 06:29N 51°55' E 004°13'0 0.0
2018-Apr-23 05:56N 51°55' E 004°13'0 0.0
2018-Apr-23 05:29N 51°55' E 004°13'0 0.0
2018-Apr-23 04:56N 51°55' E 004°13'0 0.0
2018-Apr-23 04:29N 51°55' E 004°13'0 0.0
2018-Apr-23 03:59N 51°55' E 004°13'0 0.0
2018-Apr-23 03:29N 51°55' E 004°13'0 0.0
2018-Apr-23 02:56N 51°55' E 004°13'0 0.0
2018-Apr-23 02:29N 51°55' E 004°13'0 0.0
2018-Apr-23 01:59N 51°55' E 004°13'0 0.0
2018-Apr-23 01:26N 51°55' E 004°13'0 0.0
2018-Apr-23 00:59N 51°55' E 004°13'0 0.0
2018-Apr-23 00:29N 51°55' E 004°13'0 0.0
2018-Apr-22 23:56N 51°55' E 004°13'0 0.0
2018-Apr-22 23:29N 51°55' E 004°13'0 0.0
2018-Apr-22 22:59N 51°55' E 004°13'0 0.0
2018-Apr-22 22:29N 51°55' E 004°13'0 0.0
2018-Apr-22 21:59N 51°55' E 004°13'0 0.0
2018-Apr-22 21:20N 51°55' E 004°13'0 0.0
2018-Apr-22 20:59N 51°55' E 004°13'0 0.0
2018-Apr-22 20:29N 51°55' E 004°13'0 0.0
2018-Apr-22 19:59N 51°55' E 004°13'0 0.0
2018-Apr-22 19:29N 51°55' E 004°13'0 0.0
2018-Apr-22 18:59N 51°55' E 004°13'0 0.0
2018-Apr-22 18:29N 51°55' E 004°13'0 0.0
2018-Apr-22 17:59N 51°55' E 004°13'0 0.0
2018-Apr-22 17:26N 51°55' E 004°13'0 0.0
2018-Apr-22 16:56N 51°55' E 004°13'0 0.0
2018-Apr-22 16:29N 51°55' E 004°13'0 0.0
2018-Apr-22 15:59N 51°55' E 004°13'0 0.0
2018-Apr-22 15:29N 51°55' E 004°13'0 0.0
2018-Apr-22 14:56N 51°55' E 004°13'0 0.0
2018-Apr-22 14:26N 51°55' E 004°13'0 0.0
2018-Apr-22 13:56N 51°55' E 004°13'0 0.0
2018-Apr-22 13:29N 51°55' E 004°13'0 0.0
2018-Apr-22 12:59N 51°55' E 004°13'0 0.0
2018-Apr-22 12:29N 51°55' E 004°13'0 0.0
2018-Apr-22 11:56N 51°55' E 004°13'0 0.0
2018-Apr-22 11:26N 51°55' E 004°13'0 0.0
2018-Apr-22 10:59N 51°55' E 004°13'0 0.0
2018-Apr-22 10:29N 51°55' E 004°13'0 0.0
2018-Apr-22 09:59N 51°55' E 004°13'0 0.0
2018-Apr-22 09:29N 51°55' E 004°13'0 0.0
2018-Apr-22 09:00N 51°55' E 004°13'0 0.0
2018-Apr-22 08:30N 51°55' E 004°13'0 0.0
2018-Apr-22 08:00N 51°55' E 004°13'0 0.0
2018-Apr-22 07:30N 51°55' E 004°13'0 0.0
2018-Apr-22 07:00N 51°55' E 004°13'0 0.0
2018-Apr-22 06:30N 51°55' E 004°13'0 0.0
2018-Apr-22 06:00N 51°55' E 004°13'0 0.0
2018-Apr-22 05:30N 51°55' E 004°13'0 0.0
2018-Apr-22 05:00N 51°55' E 004°13'0 0.0
2018-Apr-22 04:30N 51°55' E 004°13'0 0.0
2018-Apr-22 04:00N 51°55' E 004°13'0 0.0
2018-Apr-22 03:30N 51°55' E 004°13'0 0.0
2018-Apr-22 03:00N 51°55' E 004°13'0 0.0
2018-Apr-22 02:30N 51°55' E 004°13'0 0.0
2018-Apr-22 02:00N 51°55' E 004°13'0 0.0
2018-Apr-22 01:30N 51°55' E 004°13'0 0.0
2018-Apr-22 01:00N 51°55' E 004°13'0 0.0
2018-Apr-22 00:30N 51°55' E 004°13'0 0.0
2018-Apr-22 00:00N 51°55' E 004°13'0 0.0
2018-Apr-21 23:30N 51°55' E 004°13'0 0.0
2018-Apr-21 23:00N 51°55' E 004°13'0 0.0
2018-Apr-21 22:30N 51°55' E 004°13'0 0.0
2018-Apr-21 22:00N 51°55' E 004°13'0 0.0
2018-Apr-21 21:30N 51°55' E 004°13'0 0.0
2018-Apr-21 21:00N 51°55' E 004°13'0 0.0
2018-Apr-21 20:30N 51°55' E 004°13'0 0.0
2018-Apr-21 20:00N 51°55' E 004°13'0 0.0
2018-Apr-21 19:30N 51°55' E 004°13'0 0.0
2018-Apr-21 19:00N 51°55' E 004°13'0 0.0
2018-Apr-21 18:30N 51°55' E 004°13'0 0.0
2018-Apr-21 18:01N 51°55' E 004°13'0 0.0
2018-Apr-21 17:30N 51°55' E 004°13'0 0.0
2018-Apr-21 17:00N 51°55' E 004°13'0 0.0
2018-Apr-21 16:31N 51°55' E 004°13'0 0.0
2018-Apr-21 16:00N 51°55' E 004°13'0 0.0
2018-Apr-21 15:30N 51°55' E 004°13'0 0.0
2018-Apr-21 15:00N 51°55' E 004°13'0 0.0
2018-Apr-21 14:30N 51°55' E 004°13'0 0.0
2018-Apr-21 14:00N 51°55' E 004°13'0 0.0
2018-Apr-21 13:30N 51°55' E 004°13'0 0.0
2018-Apr-21 13:00N 51°55' E 004°13'0 0.0
2018-Apr-21 12:30N 51°55' E 004°13'0 0.0
2018-Apr-21 12:00N 51°55' E 004°13'0 0.0
2018-Apr-21 11:30N 51°55' E 004°13'0 0.0
2018-Apr-21 11:00N 51°55' E 004°13'0 0.0
2018-Apr-21 10:30N 51°55' E 004°13'0 0.0
2018-Apr-21 10:00N 51°55' E 004°13'0 0.0
2018-Apr-21 09:30N 51°55' E 004°13'0 0.0
2018-Apr-21 09:00N 51°55' E 004°13'0 0.0
2018-Apr-21 08:30N 51°55' E 004°13'0 0.0
2018-Apr-21 08:00N 51°55' E 004°13'0 0.0
2018-Apr-21 07:30N 51°55' E 004°13'0 0.0
2018-Apr-21 07:00N 51°55' E 004°13'0 0.0
2018-Apr-21 06:30N 51°55' E 004°13'0 0.0
2018-Apr-21 06:00N 51°55' E 004°13'0 0.0
2018-Apr-21 05:30N 51°55' E 004°13'0 0.0
2018-Apr-21 05:00N 51°55' E 004°13'0 0.0
2018-Apr-21 04:30N 51°55' E 004°13'0 0.0
2018-Apr-21 04:00N 51°55' E 004°13'0 0.0
2018-Apr-21 03:30N 51°55' E 004°13'0 0.0
2018-Apr-21 03:00N 51°55' E 004°13'0 0.0
2018-Apr-21 02:30N 51°55' E 004°13'0 0.0
2018-Apr-21 02:00N 51°55' E 004°13'0 0.0
2018-Apr-21 01:30N 51°55' E 004°13'0 0.0
2018-Apr-21 01:00N 51°55' E 004°13'0 0.0
2018-Apr-21 00:31N 51°55' E 004°13'0 0.0
2018-Apr-21 00:00N 51°55' E 004°13'0 0.0
2018-Apr-20 23:30N 51°55' E 004°13'0 0.0
2018-Apr-20 23:00N 51°55' E 004°13'0 0.0
2018-Apr-20 22:30N 51°55' E 004°13'0 0.0
2018-Apr-20 22:00N 51°55' E 004°13'0 0.0
2018-Apr-20 21:30N 51°55' E 004°13'0 0.0
2018-Apr-20 21:00N 51°55' E 004°13'0 0.0
2018-Apr-20 20:30N 51°55' E 004°13'0 0.0
2018-Apr-20 20:00N 51°55' E 004°13'0 0.0
2018-Apr-20 19:30N 51°55' E 004°13'0 0.0
2018-Apr-20 19:00N 51°55' E 004°13'0 0.0
2018-Apr-20 18:30N 51°55' E 004°13'0 0.0
2018-Apr-20 18:00N 51°55' E 004°13'0 0.0
2018-Apr-20 17:30N 51°55' E 004°13'0 0.0
2018-Apr-20 17:00N 51°55' E 004°13'0 0.0
2018-Apr-20 16:30N 51°55' E 004°13'0 0.0
2018-Apr-20 16:00N 51°55' E 004°13'0 0.0
2018-Apr-20 15:30N 51°55' E 004°13'0 0.0
2018-Apr-20 15:00N 51°55' E 004°13'0 0.0
2018-Apr-20 14:30N 51°55' E 004°13'0 0.0
2018-Apr-20 14:00N 51°55' E 004°13'0 0.0
2018-Apr-20 13:30N 51°55' E 004°13'0 0.0
2018-Apr-20 13:00N 51°55' E 004°13'0 0.0
2018-Apr-20 12:30N 51°55' E 004°13'0 0.0
2018-Apr-20 12:00N 51°55' E 004°13'0 0.0
2018-Apr-20 11:30N 51°55' E 004°13'0 0.0
2018-Apr-20 11:01N 51°55' E 004°13'0 0.0
2018-Apr-20 10:30N 51°55' E 004°13'0 0.0
2018-Apr-20 10:00N 51°55' E 004°13'0 0.0
2018-Apr-20 09:31N 51°55' E 004°13'0 0.0
2018-Apr-20 09:00N 51°55' E 004°13'0 0.0
2018-Apr-20 08:30N 51°55' E 004°13'0 0.0
2018-Apr-20 08:00N 51°55' E 004°13'0 0.0
2018-Apr-20 07:30N 51°55' E 004°13'0 0.0
2018-Apr-20 07:00N 51°55' E 004°13'0 0.0
2018-Apr-20 06:30N 51°55' E 004°13'0 0.0
2018-Apr-20 06:00N 51°55' E 004°13'0 0.0
2018-Apr-20 05:30N 51°55' E 004°13'0 0.0
2018-Apr-20 05:00N 51°55' E 004°13'0 0.0
2018-Apr-20 04:30N 51°55' E 004°13'0 0.0
2018-Apr-20 04:00N 51°55' E 004°13'0 0.0
2018-Apr-20 03:30N 51°55' E 004°13'0 0.0
2018-Apr-20 03:00N 51°55' E 004°13'0 0.0
2018-Apr-20 02:30N 51°55' E 004°13'0 0.0
2018-Apr-20 02:00N 51°55' E 004°13'0 0.0
2018-Apr-20 01:30N 51°55' E 004°13'0 0.0
2018-Apr-20 01:00N 51°55' E 004°13'0 0.0
2018-Apr-20 00:30N 51°55' E 004°13'0 0.0
2018-Apr-20 00:00N 51°55' E 004°13'0 0.0
2018-Apr-19 23:30N 51°55' E 004°13'0 0.0
2018-Apr-19 23:00N 51°55' E 004°13'0 0.0
2018-Apr-19 22:30N 51°55' E 004°13'0 0.0
2018-Apr-19 22:00N 51°55' E 004°13'0 0.0
2018-Apr-19 21:30N 51°55' E 004°13'0 0.0
2018-Apr-19 21:00N 51°55' E 004°13'0 0.0
2018-Apr-19 20:30N 51°55' E 004°13'0 0.0
2018-Apr-19 20:00N 51°55' E 004°13'0 0.1
2018-Apr-19 19:30N 51°55' E 004°13'0 0.1
2018-Apr-19 19:00N 51°55' E 004°13'0 0.0
2018-Apr-19 18:30N 51°55' E 004°13'0 0.0
2018-Apr-19 18:00N 51°55' E 004°13'0 0.0
2018-Apr-19 17:30N 51°55' E 004°13'0 0.0
2018-Apr-19 17:00N 51°55' E 004°13'1 2.0
2018-Apr-19 16:30N 51°56' E 004°12'3 5.0
2018-Apr-19 16:00N 51°57' E 004°09'3 5.9
2018-Apr-19 15:30N 51°59' E 004°04'4 8.8
2018-Apr-19 15:00N 52°00' E 003°58'611.6
2018-Apr-19 14:30N 52°00' E 003°48'5 9.9
2018-Apr-19 14:00N 52°03' E 003°41'713.3
2018-Apr-19 13:30N 52°07' E 003°32'5 7.4
2018-Apr-19 12:51N 52°11' E 003°36'1 3.0
2018-Apr-19 12:29N 52°10' E 003°37'0 0.0
2018-Apr-19 08:30N 52°10' E 003°37'0 0.2
2018-Apr-19 07:54N 52°11' E 003°37'0 0.2
2018-Apr-19 07:27N 52°11' E 003°37'0 0.1
2018-Apr-19 06:57N 52°11' E 003°38'0 0.0
2018-Apr-19 06:30N 52°11' E 003°38'0 0.0
2018-Apr-19 05:51N 52°11' E 003°38'0 0.0
2018-Apr-19 05:27N 52°11' E 003°38'0 0.0
2018-Apr-19 04:48N 52°11' E 003°38'0 0.0
2018-Apr-19 04:15N 52°11' E 003°38'0 0.0
2018-Apr-19 03:57N 52°11' E 003°38'0 0.0
2018-Apr-19 03:27N 52°11' E 003°38'0 0.0
2018-Apr-19 03:00N 52°11' E 003°38'0 0.1
2018-Apr-19 02:30N 52°11' E 003°38'0 0.3
2018-Apr-19 01:57N 52°11' E 003°37'0 0.3
2018-Apr-19 01:27N 52°10' E 003°37'0 0.1
2018-Apr-19 00:42N 52°10' E 003°37'0 0.0
2018-Apr-19 00:27N 52°10' E 003°37'0 0.0
2018-Apr-18 23:57N 52°10' E 003°37'0 0.0
2018-Apr-18 23:30N 52°10' E 003°37'0 0.0
2018-Apr-18 23:00N 52°10' E 003°37'0 0.0
2018-Apr-18 22:30N 52°10' E 003°37'0 0.0
2018-Apr-18 22:00N 52°10' E 003°37'0 0.0
2018-Apr-18 21:30N 52°10' E 003°37'0 0.0
2018-Apr-18 20:57N 52°10' E 003°37'0 0.0
2018-Apr-18 20:27N 52°10' E 003°37'0 0.0
2018-Apr-18 20:00N 52°10' E 003°37'0 0.2
2018-Apr-18 19:18N 52°11' E 003°37'0 0.2
2018-Apr-18 18:57N 52°11' E 003°37'0 0.1
2018-Apr-18 18:21N 52°11' E 003°38'0 0.0
2018-Apr-18 17:06N 52°11' E 003°38'0 0.0
2018-Apr-18 17:00N 52°11' E 003°38'0 0.0
2018-Apr-18 16:30N 52°11' E 003°38'0 0.0
2018-Apr-18 15:57N 52°11' E 003°38'0 0.0
2018-Apr-18 15:12N 52°11' E 003°38'0 0.2
2018-Apr-18 15:00N 52°11' E 003°38'0 0.0
2018-Apr-18 14:21N 52°11' E 003°38'0 0.4
2018-Apr-18 13:39N 52°10' E 003°37'0 0.0
2018-Apr-18 13:30N 52°10' E 003°37'0 0.0
2018-Apr-18 09:12N 52°10' E 003°37'0 0.0
2018-Apr-18 08:45N 52°10' E 003°37'0 0.1
2018-Apr-18 06:42N 52°11' E 003°38'0 0.0
2018-Apr-18 06:30N 52°11' E 003°38'0 0.0
2018-Apr-18 06:00N 52°11' E 003°38'0 0.1
2018-Apr-18 05:30N 52°11' E 003°38'0 0.0
2018-Apr-18 05:00N 52°11' E 003°38'0 0.0
2018-Apr-18 04:30N 52°11' E 003°38'0 0.0
2018-Apr-18 04:00N 52°11' E 003°38'0 0.0
2018-Apr-18 03:30N 52°11' E 003°38'0 0.0
2018-Apr-18 01:51N 52°11' E 003°38'0 0.3
2018-Apr-18 01:30N 52°11' E 003°37'0 0.4
2018-Apr-18 00:45N 52°10' E 003°37'0 0.1
2018-Apr-18 00:30N 52°10' E 003°37'0 0.0
2018-Apr-17 22:24N 52°10' E 003°37'0 0.1
2018-Apr-17 22:00N 52°10' E 003°37'0 0.0
2018-Apr-17 21:06N 52°10' E 003°37'0 0.1
2018-Apr-17 20:36N 52°10' E 003°37'0 0.1
2018-Apr-17 20:24N 52°10' E 003°37'0 0.0
2018-Apr-17 11:36N 52°10' E 003°37'0 0.0
2018-Apr-17 10:15N 52°10' E 003°37'0 0.0
2018-Apr-17 09:57N 52°10' E 003°37'0 0.0
2018-Apr-17 09:30N 52°10' E 003°37'0 0.1
2018-Apr-17 08:06N 52°10' E 003°37'0 0.3
2018-Apr-17 07:45N 52°11' E 003°37'0 0.3
2018-Apr-17 07:30N 52°11' E 003°37'0 0.1
2018-Apr-17 06:57N 52°11' E 003°37'0 0.1
2018-Apr-17 06:30N 52°11' E 003°37'0 0.0
2018-Apr-17 06:00N 52°11' E 003°37'0 0.0
2018-Apr-17 05:30N 52°11' E 003°37'0 0.1
2018-Apr-17 04:21N 52°11' E 003°38'0 0.0
2018-Apr-17 03:51N 52°11' E 003°38'0 0.0
2018-Apr-17 02:39N 52°11' E 003°38'0 0.0
2018-Apr-17 01:42N 52°11' E 003°38'0 0.0
2018-Apr-17 01:24N 52°11' E 003°38'0 0.0
2018-Apr-17 00:57N 52°11' E 003°38'0 0.3
2018-Apr-17 00:27N 52°10' E 003°38'0 0.3
2018-Apr-17 00:00N 52°10' E 003°37'0 0.1
2018-Apr-16 23:30N 52°10' E 003°37'0 0.0
2018-Apr-16 23:00N 52°10' E 003°37'0 0.0
2018-Apr-16 22:27N 52°10' E 003°37'0 0.0
2018-Apr-16 21:54N 52°10' E 003°37'0 0.0
2018-Apr-16 21:21N 52°10' E 003°37'0 0.0
2018-Apr-16 21:00N 52°10' E 003°37'0 0.0
2018-Apr-16 20:30N 52°10' E 003°37'0 0.0
2018-Apr-16 19:57N 52°10' E 003°37'0 0.2
2018-Apr-16 19:21N 52°10' E 003°37'0 0.4
2018-Apr-16 18:57N 52°10' E 003°38'0 0.2
2018-Apr-16 18:21N 52°11' E 003°38'0 0.1
2018-Apr-16 18:00N 52°11' E 003°38'  
Track history (hours):
 
Tides and Currents Weather Stations Pressure Air Temp Water Temp Dewpoint Dewpoint Depression Visibility Wind Speed Wind Dir Waves Ship Positions

Promitheas

Last reported at 2018-Apr-26 17:54 UTC. Time now 2018-Apr-26 22:36 UTC.
Position N 55°51' E 017°05'.

Length 249 m; draft 8.2 m.

Type: Ship (hazmat cat A). MMSI: 240547000.

Date/timePositionNaut miles runAvg speedWind from/ knotsBaromVisibWave heightAir tempDewpointWater temp
2018-Apr-26 17:54N 55°51' E 017°05'513.7
2018-Apr-26 17:31N 55°50' E 016°56'713.8
2018-Apr-26 17:00N 55°48' E 016°44'713.8
2018-Apr-26 16:31N 55°46' E 016°32'713.7
2018-Apr-26 16:01N 55°45' E 016°21'713.7
2018-Apr-26 15:31N 55°43' E 016°09'713.8
2018-Apr-26 15:00N 55°42' E 015°57'714.0
2018-Apr-26 14:30N 55°40' E 015°45'713.9
2018-Apr-26 14:00N 55°38' E 015°33'713.8
2018-Apr-26 13:30N 55°36' E 015°21'713.9
2018-Apr-26 13:00N 55°33' E 015°10'713.9
2018-Apr-26 12:30N 55°30' E 014°59'713.5
2018-Apr-26 12:00N 55°27' E 014°49'713.8
2018-Apr-26 11:30N 55°23' E 014°38'713.8
2018-Apr-26 11:00N 55°18' E 014°31'713.7
2018-Apr-26 10:30N 55°12' E 014°24'713.8
2018-Apr-26 10:00N 55°07' E 014°16'713.8
2018-Apr-26 09:30N 55°02' E 014°08'1413.7
2018-Apr-26 08:30N 54°57' E 013°46'5614.0
2018-Apr-26 04:30N 54°35' E 012°17'612.4
2018-Apr-26 04:01N 54°29' E 012°14'612.6
2018-Apr-26 03:30N 54°25' E 012°06'1114.6
2018-Apr-26 02:47N 54°25' E 011°48'414.3
2018-Apr-26 02:30N 54°26' E 011°41'714.5
2018-Apr-26 02:00N 54°30' E 011°30'714.8
2018-Apr-26 01:30N 54°33' E 011°19'714.7
2018-Apr-26 01:00N 54°36' E 011°08'714.5
2018-Apr-26 00:30N 54°40' E 010°57'612.9
2018-Apr-26 00:00N 54°46' E 010°51'815.9
2018-Apr-25 23:30N 54°54' E 010°53'714.8
2018-Apr-25 23:00N 54°60' E 011°00'815.2
2018-Apr-25 22:30N 55°07' E 011°02'713.7
2018-Apr-25 22:00N 55°14' E 011°06'12012.7
2018-Apr-25 12:31N 57°13' E 011°34'013.7
2018-Apr-25 12:30N 57°13' E 011°34'713.8
2018-Apr-25 12:00N 57°20' E 011°30'713.4
2018-Apr-25 11:31N 57°26' E 011°26'713.8
2018-Apr-25 11:00N 57°31' E 011°18'713.9
2018-Apr-25 10:30N 57°36' E 011°08'714.1
2018-Apr-25 10:00N 57°41' E 010°58'714.6
2018-Apr-25 09:30N 57°46' E 010°48'612.7
2018-Apr-25 09:00N 57°47' E 010°37'611.7
2018-Apr-25 08:30N 57°47' E 010°26'19912.1
2018-Apr-24 16:07N 55°35' E 005°55'213.5
2018-Apr-24 16:00N 55°34' E 005°54'713.4
2018-Apr-24 15:27N 55°27' E 005°49'21112.5
2018-Apr-23 22:36N 52°16' E 003°19'213.5
2018-Apr-23 22:26N 52°15' E 003°21'613.5
2018-Apr-23 22:00N 52°11' E 003°28'712.4
2018-Apr-23 21:28N 52°07' E 003°37'612.1
2018-Apr-23 20:59N 52°04' E 003°46'510.7
2018-Apr-23 20:30N 52°03' E 003°54'5 9.4
2018-Apr-23 20:00N 52°00' E 003°60'612.3
2018-Apr-23 19:30N 51°57' E 004°09'4 7.0
2018-Apr-23 19:00N 51°55' E 004°13'0 0.2
2018-Apr-23 18:29N 51°55' E 004°13'0 0.0
2018-Apr-23 17:59N 51°55' E 004°13'0 0.0
2018-Apr-23 17:29N 51°55' E 004°13'0 0.0
2018-Apr-23 16:59N 51°55' E 004°13'0 0.0
2018-Apr-23 16:29N 51°55' E 004°13'0 0.0
2018-Apr-23 15:59N 51°55' E 004°13'0 0.0
2018-Apr-23 15:29N 51°55' E 004°13'0 0.0
2018-Apr-23 14:59N 51°55' E 004°13'0 0.0
2018-Apr-23 14:29N 51°55' E 004°13'0 0.0
2018-Apr-23 13:56N 51°55' E 004°13'0 0.0
2018-Apr-23 13:29N 51°55' E 004°13'0 0.0
2018-Apr-23 12:53N 51°55' E 004°13'0 0.0
2018-Apr-23 12:29N 51°55' E 004°13'0 0.0
2018-Apr-23 11:59N 51°55' E 004°13'0 0.0
2018-Apr-23 11:23N 51°55' E 004°13'0 0.0
2018-Apr-23 10:56N 51°55' E 004°13'0 0.0
2018-Apr-23 10:26N 51°55' E 004°13'0 0.0
2018-Apr-23 09:59N 51°55' E 004°13'0 0.0
2018-Apr-23 09:29N 51°55' E 004°13'0 0.0
2018-Apr-23 08:59N 51°55' E 004°13'0 0.0
2018-Apr-23 08:29N 51°55' E 004°13'0 0.0
2018-Apr-23 07:56N 51°55' E 004°13'0 0.0
2018-Apr-23 07:26N 51°55' E 004°13'0 0.0
2018-Apr-23 06:59N 51°55' E 004°13'0 0.0
2018-Apr-23 06:29N 51°55' E 004°13'0 0.0
2018-Apr-23 05:56N 51°55' E 004°13'0 0.0
2018-Apr-23 05:29N 51°55' E 004°13'0 0.0
2018-Apr-23 04:56N 51°55' E 004°13'0 0.0
2018-Apr-23 04:29N 51°55' E 004°13'0 0.0
2018-Apr-23 03:59N 51°55' E 004°13'0 0.0
2018-Apr-23 03:29N 51°55' E 004°13'0 0.0
2018-Apr-23 02:56N 51°55' E 004°13'0 0.0
2018-Apr-23 02:29N 51°55' E 004°13'0 0.0
2018-Apr-23 01:59N 51°55' E 004°13'0 0.0
2018-Apr-23 01:26N 51°55' E 004°13'0 0.0
2018-Apr-23 00:59N 51°55' E 004°13'0 0.0
2018-Apr-23 00:29N 51°55' E 004°13'0 0.0
2018-Apr-22 23:56N 51°55' E 004°13'0 0.0
2018-Apr-22 23:29N 51°55' E 004°13'0 0.0
2018-Apr-22 22:59N 51°55' E 004°13'0 0.0
2018-Apr-22 22:29N 51°55' E 004°13'0 0.0
2018-Apr-22 21:59N 51°55' E 004°13'0 0.0
2018-Apr-22 21:20N 51°55' E 004°13'0 0.0
2018-Apr-22 20:59N 51°55' E 004°13'0 0.0
2018-Apr-22 20:29N 51°55' E 004°13'0 0.0
2018-Apr-22 19:59N 51°55' E 004°13'0 0.0
2018-Apr-22 19:29N 51°55' E 004°13'0 0.0
2018-Apr-22 18:59N 51°55' E 004°13'0 0.0
2018-Apr-22 18:29N 51°55' E 004°13'0 0.0
2018-Apr-22 17:59N 51°55' E 004°13'0 0.0
2018-Apr-22 17:26N 51°55' E 004°13'0 0.0
2018-Apr-22 16:56N 51°55' E 004°13'0 0.0
2018-Apr-22 16:29N 51°55' E 004°13'0 0.0
2018-Apr-22 15:59N 51°55' E 004°13'0 0.0
2018-Apr-22 15:29N 51°55' E 004°13'0 0.0
2018-Apr-22 14:56N 51°55' E 004°13'0 0.0
2018-Apr-22 14:26N 51°55' E 004°13'0 0.0
2018-Apr-22 13:56N 51°55' E 004°13'0 0.0
2018-Apr-22 13:29N 51°55' E 004°13'0 0.0
2018-Apr-22 12:59N 51°55' E 004°13'0 0.0
2018-Apr-22 12:29N 51°55' E 004°13'0 0.0
2018-Apr-22 11:56N 51°55' E 004°13'0 0.0
2018-Apr-22 11:26N 51°55' E 004°13'0 0.0
2018-Apr-22 10:59N 51°55' E 004°13'0 0.0
2018-Apr-22 10:29N 51°55' E 004°13'0 0.0
2018-Apr-22 09:59N 51°55' E 004°13'0 0.0
2018-Apr-22 09:29N 51°55' E 004°13'0 0.0
2018-Apr-22 09:00N 51°55' E 004°13'0 0.0
2018-Apr-22 08:30N 51°55' E 004°13'0 0.0
2018-Apr-22 08:00N 51°55' E 004°13'0 0.0
2018-Apr-22 07:30N 51°55' E 004°13'0 0.0
2018-Apr-22 07:00N 51°55' E 004°13'0 0.0
2018-Apr-22 06:30N 51°55' E 004°13'0 0.0
2018-Apr-22 06:00N 51°55' E 004°13'0 0.0
2018-Apr-22 05:30N 51°55' E 004°13'0 0.0
2018-Apr-22 05:00N 51°55' E 004°13'0 0.0
2018-Apr-22 04:30N 51°55' E 004°13'0 0.0
2018-Apr-22 04:00N 51°55' E 004°13'0 0.0
2018-Apr-22 03:30N 51°55' E 004°13'0 0.0
2018-Apr-22 03:00N 51°55' E 004°13'0 0.0
2018-Apr-22 02:30N 51°55' E 004°13'0 0.0
2018-Apr-22 02:00N 51°55' E 004°13'0 0.0
2018-Apr-22 01:30N 51°55' E 004°13'0 0.0
2018-Apr-22 01:00N 51°55' E 004°13'0 0.0
2018-Apr-22 00:30N 51°55' E 004°13'0 0.0
2018-Apr-22 00:00N 51°55' E 004°13'0 0.0
2018-Apr-21 23:30N 51°55' E 004°13'0 0.0
2018-Apr-21 23:00N 51°55' E 004°13'0 0.0
2018-Apr-21 22:30N 51°55' E 004°13'0 0.0
2018-Apr-21 22:00N 51°55' E 004°13'0 0.0
2018-Apr-21 21:30N 51°55' E 004°13'0 0.0
2018-Apr-21 21:00N 51°55' E 004°13'0 0.0
2018-Apr-21 20:30N 51°55' E 004°13'0 0.0
2018-Apr-21 20:00N 51°55' E 004°13'0 0.0
2018-Apr-21 19:30N 51°55' E 004°13'0 0.0
2018-Apr-21 19:00N 51°55' E 004°13'0 0.0
2018-Apr-21 18:30N 51°55' E 004°13'0 0.0
2018-Apr-21 18:01N 51°55' E 004°13'0 0.0
2018-Apr-21 17:30N 51°55' E 004°13'0 0.0
2018-Apr-21 17:00N 51°55' E 004°13'0 0.0
2018-Apr-21 16:31N 51°55' E 004°13'0 0.0
2018-Apr-21 16:00N 51°55' E 004°13'0 0.0
2018-Apr-21 15:30N 51°55' E 004°13'0 0.0
2018-Apr-21 15:00N 51°55' E 004°13'0 0.0
2018-Apr-21 14:30N 51°55' E 004°13'0 0.0
2018-Apr-21 14:00N 51°55' E 004°13'0 0.0
2018-Apr-21 13:30N 51°55' E 004°13'0 0.0
2018-Apr-21 13:00N 51°55' E 004°13'0 0.0
2018-Apr-21 12:30N 51°55' E 004°13'0 0.0
2018-Apr-21 12:00N 51°55' E 004°13'0 0.0
2018-Apr-21 11:30N 51°55' E 004°13'0 0.0
2018-Apr-21 11:00N 51°55' E 004°13'0 0.0
2018-Apr-21 10:30N 51°55' E 004°13'0 0.0
2018-Apr-21 10:00N 51°55' E 004°13'0 0.0
2018-Apr-21 09:30N 51°55' E 004°13'0 0.0
2018-Apr-21 09:00N 51°55' E 004°13'0 0.0
2018-Apr-21 08:30N 51°55' E 004°13'0 0.0
2018-Apr-21 08:00N 51°55' E 004°13'0 0.0
2018-Apr-21 07:30N 51°55' E 004°13'0 0.0
2018-Apr-21 07:00N 51°55' E 004°13'0 0.0
2018-Apr-21 06:30N 51°55' E 004°13'0 0.0
2018-Apr-21 06:00N 51°55' E 004°13'0 0.0
2018-Apr-21 05:30N 51°55' E 004°13'0 0.0
2018-Apr-21 05:00N 51°55' E 004°13'0 0.0
2018-Apr-21 04:30N 51°55' E 004°13'0 0.0
2018-Apr-21 04:00N 51°55' E 004°13'0 0.0
2018-Apr-21 03:30N 51°55' E 004°13'0 0.0
2018-Apr-21 03:00N 51°55' E 004°13'0 0.0
2018-Apr-21 02:30N 51°55' E 004°13'0 0.0
2018-Apr-21 02:00N 51°55' E 004°13'0 0.0
2018-Apr-21 01:30N 51°55' E 004°13'0 0.0
2018-Apr-21 01:00N 51°55' E 004°13'0 0.0
2018-Apr-21 00:31N 51°55' E 004°13'0 0.0
2018-Apr-21 00:00N 51°55' E 004°13'0 0.0
2018-Apr-20 23:30N 51°55' E 004°13'0 0.0
2018-Apr-20 23:00N 51°55' E 004°13'0 0.0
2018-Apr-20 22:30N 51°55' E 004°13'0 0.0
2018-Apr-20 22:00N 51°55' E 004°13'0 0.0
2018-Apr-20 21:30N 51°55' E 004°13'0 0.0
2018-Apr-20 21:00N 51°55' E 004°13'0 0.0
2018-Apr-20 20:30N 51°55' E 004°13'0 0.0
2018-Apr-20 20:00N 51°55' E 004°13'0 0.0
2018-Apr-20 19:30N 51°55' E 004°13'0 0.0
2018-Apr-20 19:00N 51°55' E 004°13'0 0.0
2018-Apr-20 18:30N 51°55' E 004°13'0 0.0
2018-Apr-20 18:00N 51°55' E 004°13'0 0.0
2018-Apr-20 17:30N 51°55' E 004°13'0 0.0
2018-Apr-20 17:00N 51°55' E 004°13'0 0.0
2018-Apr-20 16:30N 51°55' E 004°13'0 0.0
2018-Apr-20 16:00N 51°55' E 004°13'0 0.0
2018-Apr-20 15:30N 51°55' E 004°13'0 0.0
2018-Apr-20 15:00N 51°55' E 004°13'0 0.0
2018-Apr-20 14:30N 51°55' E 004°13'0 0.0
2018-Apr-20 14:00N 51°55' E 004°13'0 0.0
2018-Apr-20 13:30N 51°55' E 004°13'0 0.0
2018-Apr-20 13:00N 51°55' E 004°13'0 0.0
2018-Apr-20 12:30N 51°55' E 004°13'0 0.0
2018-Apr-20 12:00N 51°55' E 004°13'0 0.0
2018-Apr-20 11:30N 51°55' E 004°13'0 0.0
2018-Apr-20 11:01N 51°55' E 004°13'0 0.0
2018-Apr-20 10:30N 51°55' E 004°13'0 0.0
2018-Apr-20 10:00N 51°55' E 004°13'0 0.0
2018-Apr-20 09:31N 51°55' E 004°13'0 0.0
2018-Apr-20 09:00N 51°55' E 004°13'0 0.0
2018-Apr-20 08:30N 51°55' E 004°13'0 0.0
2018-Apr-20 08:00N 51°55' E 004°13'0 0.0
2018-Apr-20 07:30N 51°55' E 004°13'0 0.0
2018-Apr-20 07:00N 51°55' E 004°13'0 0.0
2018-Apr-20 06:30N 51°55' E 004°13'0 0.0
2018-Apr-20 06:00N 51°55' E 004°13'0 0.0
2018-Apr-20 05:30N 51°55' E 004°13'0 0.0
2018-Apr-20 05:00N 51°55' E 004°13'0 0.0
2018-Apr-20 04:30N 51°55' E 004°13'0 0.0
2018-Apr-20 04:00N 51°55' E 004°13'0 0.0
2018-Apr-20 03:30N 51°55' E 004°13'0 0.0
2018-Apr-20 03:00N 51°55' E 004°13'0 0.0
2018-Apr-20 02:30N 51°55' E 004°13'0 0.0
2018-Apr-20 02:00N 51°55' E 004°13'0 0.0
2018-Apr-20 01:30N 51°55' E 004°13'0 0.0
2018-Apr-20 01:00N 51°55' E 004°13'0 0.0
2018-Apr-20 00:30N 51°55' E 004°13'0 0.0
2018-Apr-20 00:00N 51°55' E 004°13'0 0.0
2018-Apr-19 23:30N 51°55' E 004°13'0 0.0
2018-Apr-19 23:00N 51°55' E 004°13'0 0.0
2018-Apr-19 22:30N 51°55' E 004°13'0 0.0
2018-Apr-19 22:00N 51°55' E 004°13'0 0.0
2018-Apr-19 21:30N 51°55' E 004°13'0 0.0
2018-Apr-19 21:00N 51°55' E 004°13'0 0.0
2018-Apr-19 20:30N 51°55' E 004°13'0 0.0
2018-Apr-19 20:00N 51°55' E 004°13'0 0.1
2018-Apr-19 19:30N 51°55' E 004°13'0 0.1
2018-Apr-19 19:00N 51°55' E 004°13'0 0.0
2018-Apr-19 18:30N 51°55' E 004°13'0 0.0
2018-Apr-19 18:00N 51°55' E 004°13'0 0.0
2018-Apr-19 17:30N 51°55' E 004°13'0 0.0
2018-Apr-19 17:00N 51°55' E 004°13'1 2.0
2018-Apr-19 16:30N 51°56' E 004°12'3 5.0
2018-Apr-19 16:00N 51°57' E 004°09'3 5.9
2018-Apr-19 15:30N 51°59' E 004°04'4 8.8
2018-Apr-19 15:00N 52°00' E 003°58'611.6
2018-Apr-19 14:30N 52°00' E 003°48'5 9.9
2018-Apr-19 14:00N 52°03' E 003°41'713.3
2018-Apr-19 13:30N 52°07' E 003°32'5 7.4
2018-Apr-19 12:51N 52°11' E 003°36'1 3.0
2018-Apr-19 12:29N 52°10' E 003°37'0 0.0
2018-Apr-19 08:30N 52°10' E 003°37'0 0.2
2018-Apr-19 07:54N 52°11' E 003°37'0 0.2
2018-Apr-19 07:27N 52°11' E 003°37'0 0.1
2018-Apr-19 06:57N 52°11' E 003°38'0 0.0
2018-Apr-19 06:30N 52°11' E 003°38'0 0.0
2018-Apr-19 05:51N 52°11' E 003°38'0 0.0
2018-Apr-19 05:27N 52°11' E 003°38'0 0.0
2018-Apr-19 04:48N 52°11' E 003°38'0 0.0
2018-Apr-19 04:15N 52°11' E 003°38'0 0.0
2018-Apr-19 03:57N 52°11' E 003°38'0 0.0
2018-Apr-19 03:27N 52°11' E 003°38'0 0.0
2018-Apr-19 03:00N 52°11' E 003°38'0 0.1
2018-Apr-19 02:30N 52°11' E 003°38'0 0.3
2018-Apr-19 01:57N 52°11' E 003°37'0 0.3
2018-Apr-19 01:27N 52°10' E 003°37'0 0.1
2018-Apr-19 00:42N 52°10' E 003°37'0 0.0
2018-Apr-19 00:27N 52°10' E 003°37'0 0.0
2018-Apr-18 23:57N 52°10' E 003°37'0 0.0
2018-Apr-18 23:30N 52°10' E 003°37'0 0.0
2018-Apr-18 23:00N 52°10' E 003°37'0 0.0
2018-Apr-18 22:30N 52°10' E 003°37'0 0.0
2018-Apr-18 22:00N 52°10' E 003°37'0 0.0
2018-Apr-18 21:30N 52°10' E 003°37'0 0.0
2018-Apr-18 20:57N 52°10' E 003°37'0 0.0
2018-Apr-18 20:27N 52°10' E 003°37'0 0.0
2018-Apr-18 20:00N 52°10' E 003°37'0 0.2
2018-Apr-18 19:18N 52°11' E 003°37'0 0.2
2018-Apr-18 18:57N 52°11' E 003°37'0 0.1
2018-Apr-18 18:21N 52°11' E 003°38'0 0.0
2018-Apr-18 17:06N 52°11' E 003°38'0 0.0
2018-Apr-18 17:00N 52°11' E 003°38'0 0.0
2018-Apr-18 16:30N 52°11' E 003°38'0 0.0
2018-Apr-18 15:57N 52°11' E 003°38'0 0.0
2018-Apr-18 15:12N 52°11' E 003°38'0 0.2
2018-Apr-18 15:00N 52°11' E 003°38'0 0.0
2018-Apr-18 14:21N 52°11' E 003°38'0 0.4
2018-Apr-18 13:39N 52°10' E 003°37'0 0.0
2018-Apr-18 13:30N 52°10' E 003°37'0 0.0
2018-Apr-18 09:12N 52°10' E 003°37'0 0.0
2018-Apr-18 08:45N 52°10' E 003°37'0 0.1
2018-Apr-18 06:42N 52°11' E 003°38'0 0.0
2018-Apr-18 06:30N 52°11' E 003°38'0 0.0
2018-Apr-18 06:00N 52°11' E 003°38'0 0.1
2018-Apr-18 05:30N 52°11' E 003°38'0 0.0
2018-Apr-18 05:00N 52°11' E 003°38'0 0.0
2018-Apr-18 04:30N 52°11' E 003°38'0 0.0
2018-Apr-18 04:00N 52°11' E 003°38'0 0.0
2018-Apr-18 03:30N 52°11' E 003°38'0 0.0
2018-Apr-18 01:51N 52°11' E 003°38'0 0.3
2018-Apr-18 01:30N 52°11' E 003°37'0 0.4
2018-Apr-18 00:45N 52°10' E 003°37'0 0.1
2018-Apr-18 00:30N 52°10' E 003°37'0 0.0
2018-Apr-17 22:24N 52°10' E 003°37'0 0.1
2018-Apr-17 22:00N 52°10' E 003°37'0 0.0
2018-Apr-17 21:06N 52°10' E 003°37'0 0.1
2018-Apr-17 20:36N 52°10' E 003°37'0 0.1
2018-Apr-17 20:24N 52°10' E 003°37'0 0.0
2018-Apr-17 11:36N 52°10' E 003°37'0 0.0
2018-Apr-17 10:15N 52°10' E 003°37'0 0.0
2018-Apr-17 09:57N 52°10' E 003°37'0 0.0
2018-Apr-17 09:30N 52°10' E 003°37'0 0.1
2018-Apr-17 08:06N 52°10' E 003°37'0 0.3
2018-Apr-17 07:45N 52°11' E 003°37'0 0.3
2018-Apr-17 07:30N 52°11' E 003°37'0 0.1
2018-Apr-17 06:57N 52°11' E 003°37'0 0.1
2018-Apr-17 06:30N 52°11' E 003°37'0 0.0
2018-Apr-17 06:00N 52°11' E 003°37'0 0.0
2018-Apr-17 05:30N 52°11' E 003°37'0 0.1
2018-Apr-17 04:21N 52°11' E 003°38'0 0.0
2018-Apr-17 03:51N 52°11' E 003°38'0 0.0
2018-Apr-17 02:39N 52°11' E 003°38'0 0.0
2018-Apr-17 01:42N 52°11' E 003°38'0 0.0
2018-Apr-17 01:24N 52°11' E 003°38'0 0.0
2018-Apr-17 00:57N 52°11' E 003°38'0 0.3
2018-Apr-17 00:27N 52°10' E 003°38'0 0.3
2018-Apr-17 00:00N 52°10' E 003°37'0 0.1
2018-Apr-16 23:30N 52°10' E 003°37'0 0.0
2018-Apr-16 23:00N 52°10' E 003°37'0 0.0
2018-Apr-16 22:27N 52°10' E 003°37'0 0.0
2018-Apr-16 21:54N 52°10' E 003°37'0 0.0
2018-Apr-16 21:21N 52°10' E 003°37'0 0.0
2018-Apr-16 21:00N 52°10' E 003°37'0 0.0
2018-Apr-16 20:30N 52°10' E 003°37'0 0.0
2018-Apr-16 19:57N 52°10' E 003°37'0 0.2
2018-Apr-16 19:21N 52°10' E 003°37'0 0.4
2018-Apr-16 18:57N 52°10' E 003°38'0 0.2
2018-Apr-16 18:21N 52°11' E 003°38'0 0.1
2018-Apr-16 18:00N 52°11' E 003°38'  

Dump ship's entire track history